Time;durP1;ratioP1;P1;durP2;ratioP2;P2;SDS_P1;SDS_P2;PMS_P1;PMS_P2;Temp;Humidity;BMP_temperature;BMP_pressure;BME280_temperature;BME280_humidity;BME280_pressure;Samples;Min_cycle;Max_cycle;Signal;HPM_P1;HPM_P2
2023/08/12 00:01:57;;;;;;;7.95;5.47;;;;;;;18.93;100.00;100660.19;4987020;28;20304;-70
2023/08/12 00:04:23;;;;;;;9.13;6.53;;;;;;;18.97;100.00;100654.75;4991367;28;20225;-70
2023/08/12 00:06:49;;;;;;;11.25;6.00;;;;;;;19.05;100.00;100650.13;4992569;28;20215;-70
2023/08/12 00:09:16;;;;;;;6.68;5.80;;;;;;;19.10;100.00;100642.88;4993961;28;20247;-70
2023/08/12 00:11:42;;;;;;;6.57;5.60;;;;;;;19.13;100.00;100636.56;4991469;28;20283;-70
2023/08/12 00:14:09;;;;;;;11.07;6.20;;;;;;;19.23;100.00;100642.69;4993546;28;20310;-70
2023/08/12 00:16:35;;;;;;;7.93;5.53;;;;;;;19.36;100.00;100645.09;4993643;28;20205;-70
2023/08/12 00:19:02;;;;;;;9.02;6.25;;;;;;;19.35;100.00;100635.28;4989873;28;20336;-71
2023/08/12 00:21:28;;;;;;;7.10;5.97;;;;;;;19.32;100.00;100638.00;4991043;28;20264;-70
2023/08/12 00:23:55;;;;;;;9.85;6.00;;;;;;;19.36;100.00;100636.16;4993168;28;20344;-70
2023/08/12 00:26:21;;;;;;;7.88;5.40;;;;;;;19.26;100.00;100631.88;4993481;28;20259;-70
2023/08/12 00:28:49;;;;;;;6.78;5.53;;;;;;;19.21;100.00;100628.34;4985537;28;20217;-71
2023/08/12 00:31:15;;;;;;;6.53;5.78;;;;;;;19.17;100.00;100618.59;4982819;28;20287;-70
2023/08/12 00:33:42;;;;;;;8.07;5.30;;;;;;;19.18;100.00;100617.69;4992549;28;20231;-70
2023/08/12 00:36:08;;;;;;;9.82;6.00;;;;;;;19.20;100.00;100616.72;4993428;28;20209;-70
2023/08/12 00:38:37;;;;;;;9.07;6.10;;;;;;;19.36;100.00;100611.97;4993211;28;20226;-70
2023/08/12 00:41:03;;;;;;;7.53;5.95;;;;;;;19.37;100.00;100609.28;4974769;28;20745;-70
2023/08/12 00:43:30;;;;;;;8.85;6.03;;;;;;;19.37;100.00;100616.44;4997732;28;20209;-70
2023/08/12 00:45:57;;;;;;;11.13;6.13;;;;;;;19.35;100.00;100611.09;4993213;28;20464;-70
2023/08/12 00:48:23;;;;;;;8.32;6.00;;;;;;;19.32;100.00;100621.03;4992621;28;20225;-70
2023/08/12 00:50:50;;;;;;;9.27;5.93;;;;;;;19.45;100.00;100621.66;4991749;28;20274;-70
2023/08/12 00:53:16;;;;;;;12.50;6.68;;;;;;;19.44;100.00;100623.47;4986989;28;20711;-70
2023/08/12 00:55:43;;;;;;;7.78;5.80;;;;;;;19.38;100.00;100608.34;4992797;28;20869;-70
2023/08/12 00:58:10;;;;;;;7.45;5.70;;;;;;;19.34;100.00;100605.75;4991211;28;20288;-70
2023/08/12 01:00:37;;;;;;;7.90;5.97;;;;;;;19.29;100.00;100608.53;4990870;28;20291;-70
2023/08/12 01:03:05;;;;;;;7.40;5.72;;;;;;;19.31;100.00;100616.56;4990821;28;20235;-70
2023/08/12 01:05:32;;;;;;;9.65;5.95;;;;;;;19.46;100.00;100618.06;4993002;28;20228;-71
2023/08/12 01:07:58;;;;;;;7.82;5.85;;;;;;;19.51;100.00;100618.84;4992768;28;20660;-70
2023/08/12 01:10:32;;;;;;;7.85;5.65;;;;;;;19.42;100.00;100610.06;4992203;28;20744;-70
2023/08/12 01:13:11;;;;;;;8.52;6.05;;;;;;;19.47;100.00;100615.34;4985629;28;20201;-70
2023/08/12 01:15:38;;;;;;;9.80;6.30;;;;;;;19.59;100.00;100611.56;4990989;28;20258;-70
2023/08/12 01:18:06;;;;;;;8.23;6.00;;;;;;;19.62;100.00;100615.09;4975343;28;20201;-70
2023/08/12 01:20:33;;;;;;;8.35;5.78;;;;;;;19.55;100.00;100616.09;4992384;28;20212;-71
2023/08/12 01:23:16;;;;;;;7.18;5.38;;;;;;;19.46;100.00;100610.00;4989081;28;20684;-70
2023/08/12 01:25:43;;;;;;;10.68;5.53;;;;;;;19.39;100.00;100620.88;4978871;28;20210;-70
2023/08/12 01:28:09;;;;;;;7.90;5.63;;;;;;;19.34;100.00;100619.19;4987618;28;20235;-70
2023/08/12 01:30:44;;;;;;;9.73;6.03;;;;;;;19.31;100.00;100621.94;4990433;28;20209;-70
2023/08/12 01:33:26;;;;;;;9.13;6.55;;;;;;;19.26;100.00;100615.75;4992308;28;20208;-70
2023/08/12 01:36:11;;;;;;;11.10;6.40;;;;;;;19.22;100.00;100611.38;4986045;28;20643;-70
2023/08/12 01:38:39;;;;;;;9.60;6.90;;;;;;;19.23;100.00;100622.06;4986621;28;20228;-70
2023/08/12 01:41:09;;;;;;;11.75;6.90;;;;;;;19.23;100.00;100599.72;4988952;28;20296;-70
2023/08/12 01:43:35;;;;;;;9.43;7.18;;;;;;;19.24;100.00;100599.69;4992582;28;20235;-70
2023/08/12 01:46:02;;;;;;;9.65;7.05;;;;;;;19.38;100.00;100612.84;4992068;28;20204;-70
2023/08/12 01:48:28;;;;;;;9.57;6.68;;;;;;;19.37;100.00;100609.28;4991816;28;20221;-70
2023/08/12 01:50:55;;;;;;;10.13;6.53;;;;;;;19.44;100.00;100606.47;4986633;28;20688;-70
2023/08/12 01:53:21;;;;;;;14.50;7.03;;;;;;;19.50;100.00;100612.59;4990545;28;20223;-70
2023/08/12 01:55:49;;;;;;;15.55;7.03;;;;;;;19.48;100.00;100610.84;4991658;28;20569;-71
2023/08/12 01:58:16;;;;;;;9.32;7.10;;;;;;;19.49;100.00;100620.69;4991974;28;20213;-71
2023/08/12 02:00:42;;;;;;;14.85;7.25;;;;;;;19.39;100.00;100620.88;4991294;28;20208;-70
2023/08/12 02:03:09;;;;;;;13.38;7.40;;;;;;;19.40;100.00;100629.81;4981785;28;20241;-71
2023/08/12 02:05:37;;;;;;;13.13;7.38;;;;;;;19.37;100.00;100629.88;4989634;28;20228;-70
2023/08/12 02:08:04;;;;;;;11.52;8.00;;;;;;;19.37;100.00;100632.56;4991534;28;20671;-70
2023/08/12 02:10:31;;;;;;;11.45;8.13;;;;;;;19.42;100.00;100631.56;4991402;28;20262;-70
2023/08/12 02:12:57;;;;;;;10.73;7.82;;;;;;;19.41;100.00;100636.94;4986203;28;20247;-70
2023/08/12 02:15:24;;;;;;;11.18;7.88;;;;;;;19.42;100.00;100633.34;4989627;28;20260;-70
2023/08/12 02:17:50;;;;;;;10.90;7.97;;;;;;;19.39;100.00;100639.66;4990873;28;20228;-71
2023/08/12 02:20:16;;;;;;;11.50;8.07;;;;;;;19.32;100.00;100647.88;4991838;28;20244;-71
2023/08/12 02:22:43;;;;;;;13.90;8.48;;;;;;;19.36;100.00;100654.97;4991222;28;20200;-70
2023/08/12 02:25:09;;;;;;;10.20;9.15;;;;;;;19.38;100.00;100661.19;4986327;28;20312;-70
2023/08/12 02:27:36;;;;;;;13.95;10.55;;;;;;;19.35;100.00;100658.56;4989750;28;20252;-70
2023/08/12 02:30:03;;;;;;;15.73;10.48;;;;;;;19.39;100.00;100663.84;4990975;28;20297;-70
2023/08/12 02:32:29;;;;;;;14.25;9.85;;;;;;;19.37;100.00;100671.03;4989893;28;20231;-70
2023/08/12 02:34:56;;;;;;;11.50;10.15;;;;;;;19.39;100.00;100674.59;4982079;28;20224;-70
2023/08/12 02:37:22;;;;;;;11.57;9.95;;;;;;;19.31;100.00;100697.13;4991243;28;20208;-70
2023/08/12 02:39:49;;;;;;;12.48;10.30;;;;;;;19.28;100.00;100719.56;4990427;28;20197;-71
2023/08/12 02:42:15;;;;;;;14.65;10.65;;;;;;;19.34;100.00;100714.06;4991222;28;20212;-71
2023/08/12 02:44:41;;;;;;;14.50;10.60;;;;;;;19.39;100.00;100703.25;4985941;28;20225;-71
2023/08/12 02:47:08;;;;;;;13.38;10.35;;;;;;;19.37;100.00;100681.78;4992926;28;20665;-71
2023/08/12 02:49:34;;;;;;;14.23;10.60;;;;;;;19.31;100.00;100664.91;4990659;28;20224;-73
2023/08/12 02:52:01;;;;;;;12.55;8.80;;;;;;;19.23;100.00;100661.47;4991069;28;20361;-73
2023/08/12 02:54:27;;;;;;;10.13;8.57;;;;;;;19.24;100.00;100671.31;4982045;28;20736;-74
2023/08/12 02:56:54;;;;;;;14.15;8.57;;;;;;;19.10;100.00;100666.16;4989279;28;20215;-75
2023/08/12 02:59:20;;;;;;;12.30;8.83;;;;;;;19.08;100.00;100660.81;4973273;28;20225;-75
2023/08/12 03:01:47;;;;;;;14.90;8.80;;;;;;;19.08;100.00;100642.00;4990226;28;20212;-75
2023/08/12 03:04:13;;;;;;;12.27;8.82;;;;;;;19.09;100.00;100641.09;4984899;28;20321;-74
2023/08/12 03:06:39;;;;;;;10.23;9.07;;;;;;;19.13;100.00;100646.41;4987418;28;20212;-74
2023/08/12 03:09:06;;;;;;;16.50;9.73;;;;;;;19.06;100.00;100645.63;4990426;28;20216;-74
2023/08/12 03:11:33;;;;;;;16.70;9.90;;;;;;;19.05;100.00;100646.56;4990221;28;20209;-75
2023/08/12 03:13:59;;;;;;;14.73;10.17;;;;;;;19.01;100.00;100650.19;4972893;28;20606;-73
2023/08/12 03:16:26;;;;;;;14.93;9.60;;;;;;;18.95;100.00;100639.56;4982476;28;20662;-74
2023/08/12 03:18:52;;;;;;;16.33;9.75;;;;;;;18.94;100.00;100643.16;4990339;28;20201;-74
2023/08/12 03:21:18;;;;;;;16.63;11.53;;;;;;;18.96;100.00;100644.91;4990130;28;20692;-73
2023/08/12 03:23:45;;;;;;;12.97;10.57;;;;;;;18.97;100.00;100654.75;4989950;28;20224;-73
2023/08/12 03:26:11;;;;;;;14.57;10.57;;;;;;;19.01;100.00;100666.31;4985768;28;20224;-73
2023/08/12 03:28:38;;;;;;;12.65;9.90;;;;;;;19.00;100.00;100656.47;4970644;28;20220;-73
2023/08/12 03:31:04;;;;;;;19.67;11.75;;;;;;;19.01;100.00;100640.34;4990302;28;20358;-75
2023/08/12 03:33:32;;;;;;;19.33;11.48;;;;;;;19.03;100.00;100618.84;4990269;28;20204;-76
2023/08/12 03:35:58;;;;;;;16.42;12.85;;;;;;;19.15;100.00;100602.50;4989022;28;20576;-76
2023/08/12 03:38:25;;;;;;;17.30;13.27;;;;;;;19.16;100.00;100598.91;4988624;28;20700;-76
2023/08/12 03:40:51;;;;;;;20.08;13.98;;;;;;;19.26;100.00;100587.09;4990327;28;20332;-75
2023/08/12 03:43:17;;;;;;;20.40;13.73;;;;;;;19.34;100.00;100584.28;4989840;28;20315;-76
2023/08/12 03:45:45;;;;;;;18.40;13.80;;;;;;;19.42;100.00;100574.25;4987300;28;20225;-75
2023/08/12 03:48:11;;;;;;;17.87;13.47;;;;;;;19.39;100.00;100561.78;4980269;28;20225;-75
2023/08/12 03:50:39;;;;;;;18.37;13.80;;;;;;;19.39;100.00;100571.63;4989899;28;20227;-74
2023/08/12 03:53:05;;;;;;;20.73;14.27;;;;;;;19.38;100.00;100585.97;4989851;28;20204;-74
2023/08/12 03:55:35;;;;;;;17.77;13.87;;;;;;;19.35;100.00;100586.94;4989891;28;20308;-74
2023/08/12 03:58:02;;;;;;;17.37;13.10;;;;;;;19.35;100.00;100586.94;4981629;28;20200;-73
2023/08/12 04:00:28;;;;;;;21.00;14.03;;;;;;;19.31;100.00;100590.59;4989859;28;20204;-73
2023/08/12 04:02:55;;;;;;;18.25;13.13;;;;;;;19.39;100.00;100582.38;4982052;28;20205;-73
2023/08/12 04:05:23;;;;;;;16.65;13.13;;;;;;;19.36;100.00;100577.94;4990568;28;20228;-73
2023/08/12 04:07:49;;;;;;;17.23;13.80;;;;;;;19.33;100.00;100574.44;4985838;28;20205;-73
2023/08/12 04:10:16;;;;;;;16.80;12.30;;;;;;;19.31;100.00;100571.78;4988939;28;20700;-73
2023/08/12 04:12:43;;;;;;;16.58;12.57;;;;;;;19.33;100.00;100569.97;4989298;28;20296;-73
2023/08/12 04:15:10;;;;;;;16.53;13.73;;;;;;;19.33;100.00;100566.38;4972583;28;20232;-72
2023/08/12 04:17:39;;;;;;;15.88;12.77;;;;;;;19.32;100.00;100560.13;4989849;28;20205;-73
2023/08/12 04:20:06;;;;;;;13.55;11.13;;;;;;;19.33;100.00;100564.59;4982341;28;20236;-73
2023/08/12 04:22:34;;;;;;;13.60;11.07;;;;;;;19.29;100.00;100557.50;4989233;28;20689;-72
2023/08/12 04:25:00;;;;;;;20.45;15.88;;;;;;;19.27;100.00;100559.34;4989789;28;20681;-72
2023/08/12 04:27:27;;;;;;;18.02;13.52;;;;;;;19.28;100.00;100553.06;4972728;28;20240;-72
2023/08/12 04:29:53;;;;;;;18.83;13.30;;;;;;;19.28;100.00;100560.22;4980030;28;20235;-72
2023/08/12 04:32:20;;;;;;;21.90;12.80;;;;;;;19.27;100.00;100556.66;4972185;28;20470;-72
2023/08/12 04:34:46;;;;;;;17.08;13.10;;;;;;;19.27;100.00;100548.59;4989396;28;20228;-72
2023/08/12 04:37:12;;;;;;;15.65;12.23;;;;;;;19.26;100.00;100551.31;4989870;28;20209;-72
2023/08/12 04:39:40;;;;;;;14.23;11.15;;;;;;;19.32;100.00;100544.03;4983131;28;20684;-72
2023/08/12 04:42:06;;;;;;;18.00;11.85;;;;;;;19.38;100.00;100541.22;4982246;28;20208;-72
2023/08/12 04:44:32;;;;;;;15.70;11.00;;;;;;;19.37;100.00;100539.44;4992905;28;20224;-72
2023/08/12 04:46:59;;;;;;;14.00;11.25;;;;;;;19.35;100.00;100532.31;4993431;28;20215;-72
2023/08/12 04:49:25;;;;;;;14.27;12.07;;;;;;;19.38;100.00;100540.31;4971338;28;20610;-72
2023/08/12 04:51:52;;;;;;;14.77;11.13;;;;;;;19.40;100.00;100541.16;4982342;28;20234;-72
2023/08/12 04:54:19;;;;;;;13.43;11.15;;;;;;;19.45;100.00;100541.06;4992927;28;20739;-72
2023/08/12 04:56:45;;;;;;;13.35;10.85;;;;;;;19.49;100.00;100534.72;4993057;28;20232;-72
2023/08/12 04:59:11;;;;;;;14.73;11.63;;;;;;;19.54;100.00;100539.09;4993132;28;20280;-72
2023/08/12 05:01:38;;;;;;;15.38;11.95;;;;;;;19.64;100.00;100534.44;4986842;28;20280;-72
2023/08/12 05:04:19;;;;;;;16.27;12.73;;;;;;;19.75;100.00;100540.47;4992560;28;20232;-72
2023/08/12 05:06:46;;;;;;;15.27;12.88;;;;;;;19.81;100.00;100543.03;4992672;28;20228;-72
2023/08/12 05:09:14;;;;;;;16.45;13.32;;;;;;;19.87;100.00;100534.81;4987930;28;20217;-72
2023/08/12 05:11:40;;;;;;;16.60;13.40;;;;;;;19.90;100.00;100547.31;4988668;28;20201;-72
2023/08/12 05:14:07;;;;;;;14.82;12.35;;;;;;;19.88;100.00;100544.66;4992411;28;20296;-72
2023/08/12 05:16:33;;;;;;;12.95;10.85;;;;;;;19.91;100.00;100551.75;4992571;28;20201;-72
2023/08/12 05:19:00;;;;;;;16.15;12.23;;;;;;;19.90;100.00;100542.81;4992182;28;20657;-72
2023/08/12 05:21:26;;;;;;;18.50;13.43;;;;;;;19.90;100.00;100548.19;4986989;28;20951;-72
2023/08/12 05:23:53;;;;;;;16.80;13.18;;;;;;;19.88;100.00;100549.13;4992028;28;20221;-72
2023/08/12 05:26:20;;;;;;;17.60;14.02;;;;;;;19.85;100.00;100546.53;4975312;28;20197;-72
2023/08/12 05:28:47;;;;;;;19.38;14.57;;;;;;;19.79;100.00;100560.09;4992147;28;20704;-72
2023/08/12 05:31:13;;;;;;;19.17;12.80;;;;;;;19.79;100.00;100552.03;4989239;28;20739;-72
2023/08/12 05:33:40;;;;;;;18.13;13.20;;;;;;;20.01;100.00;100559.59;4988386;28;20224;-72
2023/08/12 05:36:06;;;;;;;18.63;15.40;;;;;;;20.13;100.00;100550.38;4992631;28;20211;-72
2023/08/12 05:38:33;;;;;;;21.38;15.30;;;;;;;20.34;100.00;100563.28;4992164;28;20196;-72
2023/08/12 05:40:59;;;;;;;20.98;15.65;;;;;;;20.60;100.00;100564.50;4988737;28;20197;-72
2023/08/12 05:43:26;;;;;;;24.95;16.67;;;;;;;20.73;100.00;100565.06;4993169;28;20251;-72
2023/08/12 05:45:52;;;;;;;25.50;16.08;;;;;;;21.04;100.00;100574.13;4991778;28;20205;-72
2023/08/12 05:48:18;;;;;;;20.95;15.23;;;;;;;21.35;100.00;100584.13;4991926;28;20680;-72
2023/08/12 05:50:45;;;;;;;15.68;13.07;;;;;;;21.44;100.00;100578.47;4991902;28;20236;-72
2023/08/12 05:53:11;;;;;;;19.02;14.23;;;;;;;21.33;100.00;100586.84;4984624;28;20204;-72
2023/08/12 05:55:38;;;;;;;16.73;13.30;;;;;;;21.18;100.00;100592.59;4991535;28;20217;-72
2023/08/12 05:58:04;;;;;;;17.83;12.13;;;;;;;21.15;100.00;100581.91;4991931;28;20204;-72
2023/08/12 06:00:31;;;;;;;15.15;12.10;;;;;;;21.15;100.00;100593.56;4991724;28;20233;-72
2023/08/12 06:02:57;;;;;;;17.75;12.20;;;;;;;21.20;100.00;100590.75;4986346;28;20608;-72
2023/08/12 06:05:24;;;;;;;14.55;10.65;;;;;;;21.28;100.00;100594.19;4991679;28;20231;-72
2023/08/12 06:07:50;;;;;;;19.60;12.05;;;;;;;21.25;100.00;100599.66;4991966;28;20201;-72
2023/08/12 06:10:16;;;;;;;21.30;14.55;;;;;;;21.19;100.00;100600.66;4991525;28;20236;-72
2023/08/12 06:12:43;;;;;;;18.45;12.73;;;;;;;21.23;100.00;100596.13;4971108;28;20204;-72
2023/08/12 06:15:10;;;;;;;16.88;13.40;;;;;;;21.45;100.00;100599.97;4989927;28;20308;-72
2023/08/12 06:17:36;;;;;;;17.80;12.48;;;;;;;21.86;100.00;100596.09;4991728;28;20303;-71
2023/08/12 06:20:03;;;;;;;16.20;11.80;;;;;;;22.08;100.00;100601.78;4991557;28;20204;-71
2023/08/12 06:22:29;;;;;;;13.30;10.70;;;;;;;22.05;100.00;100604.56;4988785;28;20201;-71
2023/08/12 06:24:56;;;;;;;14.00;10.70;;;;;;;21.75;100.00;100603.63;4989058;28;20252;-72
2023/08/12 06:27:22;;;;;;;13.18;10.38;;;;;;;21.61;100.00;100595.03;4991378;28;20201;-72
2023/08/12 06:29:48;;;;;;;14.10;11.65;;;;;;;21.65;100.00;100599.44;4990813;28;20308;-72
2023/08/12 06:32:15;;;;;;;15.43;12.25;;;;;;;21.62;100.00;100610.31;4988305;28;20748;-72
2023/08/12 06:34:41;;;;;;;14.10;12.43;;;;;;;21.58;100.00;100605.91;4989360;28;20226;-72
2023/08/12 06:37:08;;;;;;;16.58;13.45;;;;;;;21.71;100.00;100612.75;4989887;28;20343;-71
2023/08/12 06:39:34;;;;;;;20.60;12.88;;;;;;;21.56;100.00;100608.66;4990859;28;20197;-71
2023/08/12 06:42:01;;;;;;;15.98;12.68;;;;;;;21.55;100.00;100619.47;4988863;28;20290;-72
2023/08/12 06:44:27;;;;;;;15.63;13.05;;;;;;;21.42;100.00;100626.13;4986343;28;20221;-71
2023/08/12 06:46:53;;;;;;;18.80;14.15;;;;;;;21.33;100.00;100615.63;4979249;28;20307;-72
2023/08/12 06:49:20;;;;;;;17.63;13.48;;;;;;;21.38;100.00;100619.94;4991053;28;20522;-72
2023/08/12 06:51:46;;;;;;;14.52;12.13;;;;;;;21.38;100.00;100619.06;4990409;28;20627;-71
2023/08/12 06:54:13;;;;;;;14.65;12.15;;;;;;;21.51;100.00;100623.19;4987224;28;20217;-72
2023/08/12 06:56:39;;;;;;;14.57;11.60;;;;;;;21.49;100.00;100627.72;4988840;28;20229;-71
2023/08/12 06:59:05;;;;;;;13.75;11.30;;;;;;;21.50;100.00;100630.38;4989804;28;20284;-71
2023/08/12 07:01:32;;;;;;;12.95;10.43;;;;;;;21.42;100.00;100627.00;4990499;28;20200;-71
2023/08/12 07:03:58;;;;;;;12.82;10.25;;;;;;;21.44;100.00;100624.28;4987021;28;20229;-71
2023/08/12 07:06:25;;;;;;;14.10;10.70;;;;;;;21.47;100.00;100624.19;4984922;28;20618;-72
2023/08/12 07:08:51;;;;;;;15.60;10.63;;;;;;;21.72;100.00;100627.09;4973127;28;20471;-72
2023/08/12 07:11:18;;;;;;;12.15;9.88;;;;;;;21.79;100.00;100624.19;4990511;28;20692;-72
2023/08/12 07:13:46;;;;;;;12.95;10.23;;;;;;;22.06;100.00;100621.66;4989064;28;20739;-72
2023/08/12 07:16:12;;;;;;;12.43;10.18;;;;;;;22.56;100.00;100608.38;4991364;28;20213;-71
2023/08/12 07:18:39;;;;;;;10.18;8.23;;;;;;;22.70;100.00;100615.09;4975832;28;20259;-72
2023/08/12 07:21:05;;;;;;;13.38;9.70;;;;;;;23.13;100.00;100619.97;4990856;28;20252;-72
2023/08/12 07:23:32;;;;;;;11.70;9.95;;;;;;;23.26;100.00;100630.38;4989366;28;20544;-72
2023/08/12 07:25:58;;;;;;;15.45;10.52;;;;;;;23.22;100.00;100626.88;4990495;28;20232;-72
2023/08/12 07:28:25;;;;;;;15.38;11.10;;;;;;;23.38;100.00;100622.69;4988791;28;20724;-72
2023/08/12 07:30:52;;;;;;;15.07;10.60;;;;;;;23.55;100.00;100605.88;4990283;28;20309;-72
2023/08/12 07:33:20;;;;;;;13.32;10.57;;;;;;;23.60;100.00;100625.53;4990440;28;20341;-72
2023/08/12 07:35:47;;;;;;;15.68;11.63;;;;;;;23.37;100.00;100614.66;4990175;28;20724;-72
2023/08/12 07:38:13;;;;;;;17.52;11.45;;;;;;;23.30;100.00;100623.91;4989973;28;20201;-72
2023/08/12 07:40:40;;;;;;;12.55;10.05;;;;;;;23.19;100.00;100615.28;4989913;28;20203;-72
2023/08/12 07:43:07;;;;;;;16.83;13.32;;;;;;;23.10;100.00;100609.25;4990077;28;20201;-72
2023/08/12 07:45:34;;;;;;;16.77;12.48;;;;;;;22.97;100.00;100617.84;4990439;28;20271;-71
2023/08/12 07:48:00;;;;;;;15.73;11.73;;;;;;;22.82;100.00;100613.84;4985189;28;20669;-72
2023/08/12 07:50:27;;;;;;;15.70;12.73;;;;;;;22.93;100.00;100625.19;4972620;28;20221;-72
2023/08/12 07:52:53;;;;;;;16.42;13.57;;;;;;;22.95;100.00;100612.50;4990262;28;20259;-72
2023/08/12 07:55:19;;;;;;;18.70;13.77;;;;;;;23.03;100.00;100614.94;4990076;28;20220;-72
2023/08/12 07:57:46;;;;;;;21.92;13.93;;;;;;;23.16;100.00;100620.78;4988580;28;20197;-72
2023/08/12 08:00:13;;;;;;;17.02;13.48;;;;;;;23.40;100.00;100604.59;4990153;28;20280;-72
2023/08/12 08:02:39;;;;;;;19.45;13.93;;;;;;;23.63;100.00;100605.63;4989722;28;20582;-72
2023/08/12 08:05:06;;;;;;;16.67;14.13;;;;;;;23.81;100.00;100614.88;4976853;28;20252;-72
2023/08/12 08:07:33;;;;;;;17.00;12.40;;;;;;;24.37;100.00;100615.41;4977885;28;20205;-72
2023/08/12 08:09:59;;;;;;;14.80;11.23;;;;;;;24.90;100.00;100615.06;4988984;28;20217;-72
2023/08/12 08:12:26;;;;;;;17.30;13.32;;;;;;;25.02;100.00;100613.69;4972816;28;20232;-72
2023/08/12 08:14:52;;;;;;;15.55;11.50;;;;;;;25.20;100.00;100615.59;4972921;28;20229;-72
2023/08/12 08:17:18;;;;;;;14.20;11.35;;;;;;;25.36;100.00;100632.09;4989227;28;20239;-72
2023/08/12 08:19:45;;;;;;;15.00;11.73;;;;;;;25.40;100.00;100622.88;4995061;28;21068;-72
2023/08/12 08:22:11;;;;;;;13.05;10.45;;;;;;;25.75;100.00;100624.94;4993518;28;20205;-72
2023/08/12 08:24:38;;;;;;;12.90;9.73;;;;;;;26.06;100.00;100627.13;4975707;28;20224;-72
2023/08/12 08:27:05;;;;;;;13.52;11.05;;;;;;;26.10;100.00;100626.03;4975561;28;20281;-72
2023/08/12 08:29:31;;;;;;;14.98;11.00;;;;;;;25.76;100.00;100623.97;4991602;28;20225;-72
2023/08/12 08:31:58;;;;;;;14.35;11.40;;;;;;;25.85;100.00;100622.66;4993177;28;20208;-72
2023/08/12 08:34:24;;;;;;;13.20;10.68;;;;;;;26.11;100.00;100627.78;4993321;28;20244;-72
2023/08/12 08:36:50;;;;;;;15.30;11.23;;;;;;;26.13;100.00;100612.31;4991369;28;20205;-72
2023/08/12 08:39:18;;;;;;;11.90;9.82;;;;;;;25.72;100.00;100602.50;4984863;28;20575;-72
2023/08/12 08:41:46;;;;;;;13.50;11.43;;;;;;;25.04;100.00;100593.69;4993400;28;20255;-72
2023/08/12 08:44:14;;;;;;;14.57;11.85;;;;;;;24.88;100.00;100600.69;4993155;28;20231;-72
2023/08/12 08:46:41;;;;;;;14.43;11.88;;;;;;;24.71;100.00;100595.09;4993200;28;20228;-72
2023/08/12 08:49:10;;;;;;;16.80;11.25;;;;;;;24.64;100.00;100600.75;4986590;28;20200;-71
2023/08/12 08:51:36;;;;;;;14.38;10.65;;;;;;;24.84;100.00;100583.69;4975302;28;20604;-72
2023/08/12 08:54:04;;;;;;;15.77;10.93;;;;;;;24.97;100.00;100584.94;4975277;28;20796;-71
2023/08/12 08:56:34;;;;;;;13.27;11.00;;;;;;;25.08;100.00;100598.03;4989937;28;20846;-72
2023/08/12 08:59:13;;;;;;;12.43;10.70;;;;;;;25.07;100.00;100611.66;4984836;28;20288;-72
2023/08/12 09:01:41;;;;;;;16.45;10.60;;;;;;;25.16;100.00;100600.41;4995863;28;20649;-71
2023/08/12 09:04:08;;;;;;;13.60;10.30;;;;;;;24.98;100.00;100592.16;4992587;28;20224;-72
2023/08/12 09:06:38;;;;;;;13.75;9.73;;;;;;;25.50;100.00;100597.09;4992851;28;20570;-72
2023/08/12 09:09:10;;;;;;;15.38;11.05;;;;;;;25.70;100.00;100594.41;4990333;28;20200;-72
2023/08/12 09:11:39;;;;;;;11.85;10.05;;;;;;;25.95;100.00;100585.13;4996014;28;20666;-72
2023/08/12 09:14:06;;;;;;;12.40;10.20;;;;;;;25.98;100.00;100587.69;4992814;28;20231;-72
2023/08/12 09:16:33;;;;;;;11.48;10.00;;;;;;;26.32;100.00;100578.81;4992810;28;20259;-72
2023/08/12 09:19:00;;;;;;;12.13;9.95;;;;;;;26.56;100.00;100580.38;4973959;28;20280;-72
2023/08/12 09:21:26;;;;;;;12.73;9.80;;;;;;;26.31;100.00;100577.94;4994127;28;20228;-72
2023/08/12 09:23:54;;;;;;;12.05;9.82;;;;;;;26.50;100.00;100570.69;4991644;28;20668;-72
2023/08/12 09:26:21;;;;;;;11.48;9.55;;;;;;;26.84;100.00;100585.31;4991827;28;20205;-72
2023/08/12 09:28:48;;;;;;;11.55;9.77;;;;;;;27.36;100.00;100578.09;4992074;28;20204;-72
2023/08/12 09:31:28;;;;;;;10.23;8.68;;;;;;;27.89;100.00;100581.63;4988410;28;20216;-72
2023/08/12 09:34:08;;;;;;;11.90;9.50;;;;;;;28.25;100.00;100579.59;4990221;28;20311;-72
2023/08/12 09:36:35;;;;;;;12.20;9.20;;;;;;;28.57;100.00;100596.81;4975223;28;20232;-72
2023/08/12 09:39:06;;;;;;;13.10;8.95;;;;;;;28.89;100.00;100586.81;4974907;28;20291;-72
2023/08/12 09:41:32;;;;;;;10.45;9.00;;;;;;;28.53;100.00;100583.47;4992329;28;20208;-72
2023/08/12 09:44:02;;;;;;;10.45;7.53;;;;;;;28.49;100.00;100585.50;4984635;28;20220;-72
2023/08/12 09:46:32;;;;;;;11.45;7.13;;;;;;;27.69;100.00;100590.88;4992158;28;20763;-72
2023/08/12 09:48:58;;;;;;;7.78;6.90;;;;;;;27.39;100.00;100583.38;4992082;28;20596;-72
2023/08/12 09:51:25;;;;;;;10.77;8.65;;;;;;;26.93;100.00;100589.41;4991972;28;20256;-72
2023/08/12 09:53:52;;;;;;;9.13;8.15;;;;;;;26.80;100.00;100583.69;4988818;28;20263;-72
2023/08/12 09:56:22;;;;;;;8.32;6.90;;;;;;;26.90;100.00;100595.00;4978609;28;20283;-73
2023/08/12 09:58:49;;;;;;;7.95;6.65;;;;;;;27.00;100.00;100601.75;4992541;28;20205;-72
2023/08/12 10:01:22;;;;;;;8.73;7.78;;;;;;;26.94;100.00;100608.34;4992322;28;20204;-73
2023/08/12 10:03:51;;;;;;;11.18;7.38;;;;;;;26.84;100.00;100598.91;4995961;23;20232;-68
2023/08/12 10:06:18;;;;;;;7.57;6.78;;;;;;;26.73;100.00;100623.00;4989574;28;20219;-71
2023/08/12 10:08:48;;;;;;;12.35;9.95;;;;;;;26.26;100.00;100637.03;4991419;28;20201;-70
2023/08/12 10:11:15;;;;;;;11.55;8.85;;;;;;;25.82;100.00;100661.69;4992172;28;20303;-71
2023/08/12 10:13:42;;;;;;;16.58;9.93;;;;;;;25.07;100.00;100674.88;4987622;28;20202;-70
2023/08/12 10:16:10;;;;;;;13.90;10.30;;;;;;;24.54;100.00;100686.03;4990295;28;20239;-71
2023/08/12 10:18:38;;;;;;;15.93;10.95;;;;;;;24.10;100.00;100703.09;4991083;28;20258;-70
2023/08/12 10:21:08;;;;;;;14.65;11.68;;;;;;;23.68;100.00;100682.94;4991841;28;20220;-71
2023/08/12 10:23:35;;;;;;;17.35;12.73;;;;;;;23.39;100.00;100672.25;4991819;28;20216;-71
2023/08/12 10:26:05;;;;;;;16.25;11.55;;;;;;;23.17;100.00;100653.16;4973376;28;20311;-70
2023/08/12 10:28:36;;;;;;;13.23;11.50;;;;;;;22.86;100.00;100638.94;4990380;28;20613;-71
2023/08/12 10:31:04;;;;;;;16.25;12.30;;;;;;;22.41;100.00;100634.91;4991092;28;20307;-70
2023/08/12 10:33:36;;;;;;;13.15;11.80;;;;;;;22.26;100.00;100634.50;4991921;28;20382;-71
2023/08/12 10:36:03;;;;;;;14.90;12.45;;;;;;;22.01;100.00;100635.19;4988463;28;20261;-71
2023/08/12 10:38:30;;;;;;;15.23;12.38;;;;;;;21.94;100.00;100641.72;4984714;28;20200;-71
2023/08/12 10:41:19;;;;;;;15.57;13.23;;;;;;;21.80;100.00;100622.38;4991124;28;20205;-70
2023/08/12 10:44:05;;;;;;;19.42;14.10;;;;;;;21.67;100.00;100632.63;4990843;28;20280;-70
2023/08/12 10:46:34;;;;;;;15.05;12.10;;;;;;;21.61;100.00;100630.06;4986942;28;20539;-71
2023/08/12 10:49:10;;;;;;;17.33;11.85;;;;;;;21.70;100.00;100616.38;4989762;28;20227;-70
2023/08/12 10:51:53;;;;;;;17.85;12.80;;;;;;;21.70;100.00;100616.38;4991016;28;20247;-71
2023/08/12 10:54:29;;;;;;;16.42;12.75;;;;;;;21.76;100.00;100591.91;4967915;28;20217;-71
2023/08/12 10:57:08;;;;;;;16.27;11.73;;;;;;;21.86;100.00;100590.72;4986276;28;20209;-70
2023/08/12 10:59:44;;;;;;;10.95;8.90;;;;;;;22.05;100.00;100590.22;4995402;28;20735;-70
2023/08/12 11:02:26;;;;;;;11.10;7.50;;;;;;;22.30;100.00;100568.72;4991231;28;20723;-69
2023/08/12 11:05:02;;;;;;;9.30;6.47;;;;;;;22.97;100.00;100571.94;4990854;28;20228;-71
2023/08/12 11:07:32;;;;;;;6.40;5.15;;;;;;;23.63;100.00;100573.19;4991416;28;20205;-71
2023/08/12 11:10:03;;;;;;;6.57;4.82;;;;;;;24.18;100.00;100577.34;4989193;28;20225;-69